Airfield :







YOU CAN JOIN US ON...

 
LOGIN :

Register | Disclaimer

   EN    FR    IT 

 









Legend :    VFR   Marginal VFR   IFR   Intensive IFR   Very Intensive IFR
Visi :
Ceiling :
>= 8 km
>= 3000ft
5 to 8 km
1000 to 3000 ft
1500m to 5 km
500 to 1000 ft
800 to 1500m
200 to 500 ft
< 800m
< 200 ft
Symbols :   Thunderstorms  Fog  Heavy snow  Heavy precipitations  Wind > 20 kt






- Airport Elevation : 74 ft
- IATA code : STX


TISX - Henri E Rohlsen

CURRENT METAR :
  • 172053Z AUTO 11007KT 10SM CLR 28/22 A2996 RMK AO2 SLP145 T02780217 55000

EXPIRED METARs :
  • 171953Z AUTO 11012KT 10SM CLR 28/22 A2996 RMK AO2 SLP144 T02780222
  • 171943Z AUTO 10010KT 10SM FEW002 28/22 A2996 RMK AO2 T02780222
  • 171853Z AUTO 11009KT 10SM FEW022 SCT027 SCT050 28/22 A2996 RMK AO2 SLP144 T02830217

TAF TISX
Valid from the 17 at 18:00 until the 18 at 18:00 UTC


171802Z 1718/1818 06010KT P6SM VCSH SCT025 BKN040
TEMPO 1718/1719 BKN018
FM180200 06006KT P6SM FEW025 SCT050
FM181400 09012KT P6SM FEW030 SCT050
TJZS FIR / North America



MET'MAP, your aeronautical weather chart ! - Copyright ORBIFLY December 2007 - Disclaimer

ORBIFLY MET'MAP TEAM :

Programming & Development : Alexandra Zaïnal
Concept & original design : Baudouin d'Aumeries
Assistance for programming : Marc-Olivier Méhu
Technical & hardware support : Manuel Goepfert

Contact : metmap@orbifly.com




SOURCES & CREDITS :

   NOAA